Time;durP1;ratioP1;P1;durP2;ratioP2;P2;SDS_P1;SDS_P2;PMS_P1;PMS_P2;Temp;Humidity;BMP_temperature;BMP_pressure;BME280_temperature;BME280_humidity;BME280_pressure;Samples;Min_cycle;Max_cycle;Signal;HPM_P1;HPM_P2
2022/11/03 00:01:41;;;;;;;10.15;3.38;;;;;;;;;;4997665;28;20093;-32
2022/11/03 00:04:08;;;;;;;14.10;3.28;;;;;;;;;;4997515;28;20045;-31
2022/11/03 00:06:34;;;;;;;8.43;3.30;;;;;;;;;;4997601;28;20041;-34
2022/11/03 00:09:01;;;;;;;11.60;3.72;;;;;;;;;;4997732;28;20037;-33
2022/11/03 00:11:27;;;;;;;10.85;2.72;;;;;;;;;;4980851;28;20437;-31
2022/11/03 00:13:53;;;;;;;14.27;3.83;;;;;;;;;;4997851;28;20028;-32
2022/11/03 00:16:20;;;;;;;14.15;4.20;;;;;;;;;;4997433;28;20030;-33
2022/11/03 00:18:46;;;;;;;4.97;2.90;;;;;;;;;;4997987;28;20080;-32
2022/11/03 00:21:13;;;;;;;10.73;3.38;;;;;;;;;;4997328;28;20112;-33
2022/11/03 00:23:40;;;;;;;12.43;3.28;;;;;;;;;;4997121;28;20109;-32
2022/11/03 00:26:11;;;;;;;6.03;3.65;;;;;;;;;;4997484;28;20373;-31
2022/11/03 00:28:38;;;;;;;12.75;3.28;;;;;;;;;;4997123;28;20070;-31
2022/11/03 00:31:09;;;;;;;13.18;3.75;;;;;;;;;;4997035;28;20114;-32
2022/11/03 00:33:35;;;;;;;13.80;3.60;;;;;;;;;;4997276;28;20033;-32
2022/11/03 00:36:02;;;;;;;20.85;3.40;;;;;;;;;;4997295;28;20101;-31
2022/11/03 00:38:29;;;;;;;21.27;4.40;;;;;;;;;;4996996;28;20037;-31
2022/11/03 00:41:02;;;;;;;7.18;3.08;;;;;;;;;;4996894;28;20038;-31
2022/11/03 00:43:29;;;;;;;14.90;3.55;;;;;;;;;;4997067;28;20039;-31
2022/11/03 00:45:55;;;;;;;8.98;3.55;;;;;;;;;;4996836;28;20041;-32
2022/11/03 00:48:28;;;;;;;11.60;3.03;;;;;;;;;;4996834;28;20161;-33
2022/11/03 00:51:04;;;;;;;14.57;5.22;;;;;;;;;;4996945;28;20034;-31
2022/11/03 00:53:31;;;;;;;10.70;3.15;;;;;;;;;;4996639;28;20023;-30
2022/11/03 00:55:58;;;;;;;17.38;3.65;;;;;;;;;;4996913;28;20476;-32
2022/11/03 00:58:24;;;;;;;9.40;3.10;;;;;;;;;;4996550;28;20030;-31
2022/11/03 01:00:50;;;;;;;8.48;3.00;;;;;;;;;;4996805;28;20045;-31
2022/11/03 01:03:16;;;;;;;9.43;3.15;;;;;;;;;;4996257;28;20378;-31
2022/11/03 01:08:35;;;;;;;12.75;3.28;;;;;;;;;;4996791;28;20057;-31
2022/11/03 01:13:50;;;;;;;6.70;3.22;;;;;;;;;;4996619;28;20434;-31
2022/11/03 01:16:16;;;;;;;11.18;3.28;;;;;;;;;;4996553;28;20117;-35
2022/11/03 01:18:42;;;;;;;8.85;2.78;;;;;;;;;;4996799;28;20042;-30
2022/11/03 01:21:08;;;;;;;9.55;3.15;;;;;;;;;;4996201;28;20031;-31
2022/11/03 01:23:35;;;;;;;12.38;4.40;;;;;;;;;;4996340;28;20334;-33
2022/11/03 01:26:05;;;;;;;10.15;2.40;;;;;;;;;;4996397;28;20022;-35
2022/11/03 01:28:33;;;;;;;13.95;3.47;;;;;;;;;;4996069;28;20030;-31
2022/11/03 01:31:04;;;;;;;10.23;3.35;;;;;;;;;;4996477;28;20507;-32
2022/11/03 01:33:30;;;;;;;16.98;3.72;;;;;;;;;;4995432;28;20034;-32
2022/11/03 01:35:56;;;;;;;7.53;4.38;;;;;;;;;;4996380;28;20164;-31
2022/11/03 01:38:22;;;;;;;8.80;3.17;;;;;;;;;;4996154;28;20022;-32
2022/11/03 01:40:48;;;;;;;16.00;3.83;;;;;;;;;;4978832;28;20026;-31
2022/11/03 01:43:18;;;;;;;9.55;3.17;;;;;;;;;;4995732;28;20034;-32
2022/11/03 01:45:45;;;;;;;9.60;3.35;;;;;;;;;;4996338;28;20117;-30
2022/11/03 01:48:12;;;;;;;8.02;3.10;;;;;;;;;;4995980;28;20382;-32
2022/11/03 01:50:38;;;;;;;14.48;4.32;;;;;;;;;;4995551;28;20049;-33
2022/11/03 01:53:05;;;;;;;17.65;5.38;;;;;;;;;;4995729;28;20094;-33
2022/11/03 01:55:35;;;;;;;9.10;4.55;;;;;;;;;;4995658;28;20023;-32
2022/11/03 01:58:10;;;;;;;13.57;2.97;;;;;;;;;;4995809;28;20022;-31
2022/11/03 02:00:37;;;;;;;6.50;2.80;;;;;;;;;;4995836;28;20412;-31
2022/11/03 02:03:03;;;;;;;7.85;3.40;;;;;;;;;;4995234;28;20025;-33
2022/11/03 02:05:30;;;;;;;13.23;2.60;;;;;;;;;;4995795;28;20173;-32
2022/11/03 02:08:02;;;;;;;10.07;3.05;;;;;;;;;;4995731;28;20038;-31
2022/11/03 02:10:30;;;;;;;10.63;3.03;;;;;;;;;;4978686;28;20437;-31
2022/11/03 02:12:56;;;;;;;9.93;2.90;;;;;;;;;;4995233;28;20085;-33
2022/11/03 02:15:23;;;;;;;10.52;3.05;;;;;;;;;;4995391;28;20361;-32
2022/11/03 02:17:50;;;;;;;9.60;3.63;;;;;;;;;;4995312;28;20442;-30
2022/11/03 02:20:22;;;;;;;14.55;3.95;;;;;;;;;;4995302;28;20041;-31
2022/11/03 02:22:54;;;;;;;10.95;2.80;;;;;;;;;;4995225;28;20472;-32
2022/11/03 02:25:34;;;;;;;13.75;3.70;;;;;;;;;;4978491;28;20037;-32
2022/11/03 02:28:01;;;;;;;8.33;3.37;;;;;;;;;;4995261;28;20054;-33
2022/11/03 02:30:28;;;;;;;10.85;3.20;;;;;;;;;;4995689;28;20022;-31
2022/11/03 02:32:57;;;;;;;8.32;3.22;;;;;;;;;;4995122;28;20084;-31
2022/11/03 02:35:28;;;;;;;14.90;3.80;;;;;;;;;;4978080;28;20030;-31
2022/11/03 02:37:57;;;;;;;14.35;4.53;;;;;;;;;;4995445;28;20031;-33
2022/11/03 02:40:34;;;;;;;7.63;2.65;;;;;;;;;;4978012;28;20037;-31
2022/11/03 02:43:00;;;;;;;6.47;2.53;;;;;;;;;;4995602;28;20041;-31
2022/11/03 02:45:27;;;;;;;11.15;3.00;;;;;;;;;;4996508;28;20030;-31
2022/11/03 02:47:56;;;;;;;12.13;3.10;;;;;;;;;;4999008;28;20033;-32
2022/11/03 02:50:25;;;;;;;7.55;4.47;;;;;;;;;;4998925;28;20030;-31
2022/11/03 02:52:51;;;;;;;18.13;3.25;;;;;;;;;;4999159;28;20033;-32
2022/11/03 02:55:20;;;;;;;9.20;2.97;;;;;;;;;;4998909;28;20124;-31
2022/11/03 02:57:52;;;;;;;7.25;2.67;;;;;;;;;;4998833;28;20022;-31
2022/11/03 03:00:19;;;;;;;6.57;2.58;;;;;;;;;;4999159;28;20026;-31
2022/11/03 03:03:04;;;;;;;8.85;2.63;;;;;;;;;;4998737;28;20023;-34
2022/11/03 03:05:33;;;;;;;8.45;3.03;;;;;;;;;;4999047;28;20049;-31
2022/11/03 03:08:01;;;;;;;8.73;2.70;;;;;;;;;;4998699;28;20033;-32
2022/11/03 03:10:30;;;;;;;7.38;3.42;;;;;;;;;;4998842;28;20034;-33
2022/11/03 03:12:58;;;;;;;11.80;3.05;;;;;;;;;;4998509;28;20113;-32
2022/11/03 03:15:50;;;;;;;10.05;3.63;;;;;;;;;;4998824;28;20065;-32
2022/11/03 03:18:17;;;;;;;12.85;2.80;;;;;;;;;;4995173;28;20038;-32
2022/11/03 03:20:49;;;;;;;12.38;3.20;;;;;;;;;;4999209;28;20076;-33
2022/11/03 03:23:21;;;;;;;7.55;3.17;;;;;;;;;;4981175;28;20053;-33
2022/11/03 03:25:47;;;;;;;7.68;3.13;;;;;;;;;;4998641;28;20089;-31
2022/11/03 03:28:16;;;;;;;9.80;2.83;;;;;;;;;;4999117;28;20331;-33
2022/11/03 03:30:44;;;;;;;9.55;3.80;;;;;;;;;;4998483;28;20516;-32
2022/11/03 03:33:12;;;;;;;10.77;3.13;;;;;;;;;;4998403;28;20033;-33
2022/11/03 03:35:39;;;;;;;10.77;3.30;;;;;;;;;;4981064;28;20018;-32
2022/11/03 03:38:08;;;;;;;8.07;3.05;;;;;;;;;;4980991;28;20412;-31
2022/11/03 03:40:36;;;;;;;8.68;2.63;;;;;;;;;;4998089;28;20457;-31
2022/11/03 03:43:03;;;;;;;9.07;2.63;;;;;;;;;;4997975;28;20388;-32
2022/11/03 03:45:31;;;;;;;6.68;3.60;;;;;;;;;;4998023;28;20104;-32
2022/11/03 03:47:57;;;;;;;7.97;2.90;;;;;;;;;;4997937;28;20023;-33
2022/11/03 03:50:25;;;;;;;6.80;2.70;;;;;;;;;;4998087;28;20031;-32
2022/11/03 03:52:54;;;;;;;9.77;2.53;;;;;;;;;;4998061;28;20023;-34
2022/11/03 03:55:21;;;;;;;9.48;2.58;;;;;;;;;;4998087;28;20042;-33
2022/11/03 03:57:47;;;;;;;7.15;3.05;;;;;;;;;;4997099;28;20050;-33
2022/11/03 04:00:16;;;;;;;6.65;2.92;;;;;;;;;;4997757;28;20041;-33
2022/11/03 04:02:42;;;;;;;7.00;3.00;;;;;;;;;;4980485;28;20117;-31
2022/11/03 04:05:08;;;;;;;6.28;2.47;;;;;;;;;;4997447;28;20078;-32
2022/11/03 04:07:46;;;;;;;8.50;3.47;;;;;;;;;;4997588;28;20034;-32
2022/11/03 04:10:12;;;;;;;7.65;3.00;;;;;;;;;;4982492;28;20125;-32
2022/11/03 04:24:02;;;;;;;7.32;2.80;;;;;;;;;;4997579;28;20181;-31
2022/11/03 04:26:28;;;;;;;5.22;2.70;;;;;;;;;;4997552;28;20030;-34
2022/11/03 04:28:55;;;;;;;5.72;2.92;;;;;;;;;;4997452;28;20030;-32
2022/11/03 04:31:21;;;;;;;6.05;2.83;;;;;;;;;;4997036;28;20026;-33
2022/11/03 04:33:48;;;;;;;9.10;2.75;;;;;;;;;;4997076;28;20023;-32
2022/11/03 04:36:14;;;;;;;9.82;3.55;;;;;;;;;;4997031;28;20034;-33
2022/11/03 04:38:42;;;;;;;6.25;3.20;;;;;;;;;;4997035;28;20032;-33
2022/11/03 04:41:16;;;;;;;8.63;2.80;;;;;;;;;;4996816;28;20042;-33
2022/11/03 04:43:43;;;;;;;8.20;2.80;;;;;;;;;;4996760;28;20026;-31
2022/11/03 04:46:10;;;;;;;8.88;3.13;;;;;;;;;;4997338;28;20061;-33
2022/11/03 04:48:37;;;;;;;9.18;2.67;;;;;;;;;;4997049;28;20077;-32
2022/11/03 04:51:10;;;;;;;5.15;2.15;;;;;;;;;;4996857;28;20034;-32
2022/11/03 04:53:36;;;;;;;7.25;2.97;;;;;;;;;;4996599;28;20057;-33
2022/11/03 04:56:13;;;;;;;5.93;3.53;;;;;;;;;;4996910;28;20062;-32
2022/11/03 04:58:39;;;;;;;8.25;2.85;;;;;;;;;;4996897;28;20030;-31
2022/11/03 05:01:09;;;;;;;7.88;3.00;;;;;;;;;;4979364;28;20468;-32
2022/11/03 05:03:35;;;;;;;6.43;2.08;;;;;;;;;;4996405;28;20073;-32
2022/11/03 05:06:09;;;;;;;6.75;2.92;;;;;;;;;;4996427;28;20042;-34
2022/11/03 05:08:35;;;;;;;5.82;2.53;;;;;;;;;;4995741;28;20096;-31
2022/11/03 05:11:05;;;;;;;7.03;3.08;;;;;;;;;;4996296;28;20101;-35
2022/11/03 05:13:31;;;;;;;6.10;2.95;;;;;;;;;;4996537;28;20027;-33
2022/11/03 05:16:01;;;;;;;5.93;3.10;;;;;;;;;;4996575;28;20022;-33
2022/11/03 05:18:32;;;;;;;6.03;3.85;;;;;;;;;;4996283;28;20038;-32
2022/11/03 05:21:06;;;;;;;9.57;2.70;;;;;;;;;;4996508;28;20056;-31
2022/11/03 05:23:36;;;;;;;4.60;2.28;;;;;;;;;;4996335;28;20030;-32
2022/11/03 05:26:05;;;;;;;5.70;2.40;;;;;;;;;;4996373;28;20042;-31
2022/11/03 05:28:42;;;;;;;6.35;2.72;;;;;;;;;;4996566;28;20050;-32
2022/11/03 05:31:20;;;;;;;6.38;2.88;;;;;;;;;;4995942;28;20057;-32
2022/11/03 05:33:48;;;;;;;8.02;3.30;;;;;;;;;;4995811;28;20081;-32
2022/11/03 05:36:17;;;;;;;7.63;2.88;;;;;;;;;;4996445;28;20383;-32
2022/11/03 05:38:44;;;;;;;5.90;2.05;;;;;;;;;;4996349;28;20449;-33
2022/11/03 05:41:24;;;;;;;5.10;3.00;;;;;;;;;;4978707;28;20346;-31
2022/11/03 05:43:58;;;;;;;11.87;2.80;;;;;;;;;;4996495;28;20031;-31
2022/11/03 05:46:30;;;;;;;15.23;3.00;;;;;;;;;;4995733;28;20041;-32
2022/11/03 05:48:56;;;;;;;9.65;2.58;;;;;;;;;;4995727;28;20040;-33
2022/11/03 05:51:24;;;;;;;7.10;4.03;;;;;;;;;;4995558;28;20038;-33
2022/11/03 05:53:53;;;;;;;6.32;2.75;;;;;;;;;;4995509;28;20061;-31
2022/11/03 05:56:20;;;;;;;5.97;2.35;;;;;;;;;;4995822;28;20397;-31
2022/11/03 05:58:48;;;;;;;7.05;2.55;;;;;;;;;;4995447;28;20035;-32
2022/11/03 06:03:59;;;;;;;5.28;2.10;;;;;;;;;;5044454;23;20117;-26
2022/11/03 06:06:27;;;;;;;7.75;2.50;;;;;;;;;;4995492;28;20037;-26
2022/11/03 06:08:53;;;;;;;5.30;2.30;;;;;;;;;;4995943;28;20060;-25
2022/11/03 06:11:40;;;;;;;5.97;2.92;;;;;;;;;;4995330;28;20026;-26
2022/11/03 06:14:20;;;;;;;5.15;2.80;;;;;;;;;;4976410;28;20387;-26
2022/11/03 06:16:51;;;;;;;4.90;2.17;;;;;;;;;;4975790;28;20026;-26
2022/11/03 06:19:23;;;;;;;19.05;3.28;;;;;;;;;;4975820;28;20042;-25
2022/11/03 06:21:51;;;;;;;8.73;2.40;;;;;;;;;;4975743;28;20054;-25
2022/11/03 06:24:18;;;;;;;6.18;2.25;;;;;;;;;;4958983;28;20504;-25
2022/11/03 06:26:46;;;;;;;8.27;2.53;;;;;;;;;;4975898;28;20030;-25
2022/11/03 06:29:16;;;;;;;7.30;2.92;;;;;;;;;;4975835;28;20031;-26
2022/11/03 06:31:43;;;;;;;11.20;2.78;;;;;;;;;;4975474;28;20019;-26
2022/11/03 06:34:21;;;;;;;6.82;3.70;;;;;;;;;;4975531;28;20050;-25
2022/11/03 06:36:48;;;;;;;6.90;3.30;;;;;;;;;;4975745;28;20383;-25
2022/11/03 06:39:21;;;;;;;12.80;3.22;;;;;;;;;;4975873;28;20049;-25
2022/11/03 06:41:47;;;;;;;15.27;2.58;;;;;;;;;;4975690;28;20120;-26
2022/11/03 06:44:22;;;;;;;7.20;3.20;;;;;;;;;;4975593;28;20037;-26
2022/11/03 06:46:49;;;;;;;15.07;3.10;;;;;;;;;;4975671;28;20342;-25
2022/11/03 06:49:41;;;;;;;8.82;2.55;;;;;;;;;;4975421;28;20098;-26
2022/11/03 06:52:19;;;;;;;8.13;2.35;;;;;;;;;;4972801;28;20445;-26
2022/11/03 06:54:48;;;;;;;10.80;3.00;;;;;;;;;;4975884;28;20407;-26
2022/11/03 06:57:15;;;;;;;16.58;3.35;;;;;;;;;;4975558;28;20031;-26
2022/11/03 06:59:41;;;;;;;7.60;2.25;;;;;;;;;;4975852;28;20034;-26
2022/11/03 07:02:23;;;;;;;6.15;2.22;;;;;;;;;;4975185;28;20031;-26
2022/11/03 07:04:50;;;;;;;15.77;3.97;;;;;;;;;;4958352;28;20047;-25
2022/11/03 07:07:25;;;;;;;5.72;2.22;;;;;;;;;;4975262;28;20042;-25
2022/11/03 07:09:52;;;;;;;9.52;3.28;;;;;;;;;;4975484;28;20042;-26
2022/11/03 07:12:18;;;;;;;5.55;2.55;;;;;;;;;;4975426;28;20038;-26
2022/11/03 07:14:44;;;;;;;13.55;2.72;;;;;;;;;;4975597;28;20493;-26
2022/11/03 07:17:15;;;;;;;10.85;3.15;;;;;;;;;;4975199;28;20047;-26
2022/11/03 07:19:41;;;;;;;;;;;;;;;;;;4975740;28;20050;-26
2022/11/03 07:22:25;;;;;;;12.68;2.28;;;;;;;;;;4975489;28;19936;-26
2022/11/03 07:24:53;;;;;;;10.15;3.30;;;;;;;;;;4958201;28;20101;-26
2022/11/03 07:27:51;;;;;;;7.15;2.70;;;;;;;;;;4975476;28;20358;-26
2022/11/03 07:30:20;;;;;;;14.75;2.90;;;;;;;;;;4943154;28;20034;-26
2022/11/03 07:32:47;;;;;;;7.38;3.10;;;;;;;;;;4959982;28;20023;-27
2022/11/03 07:35:33;;;;;;;6.40;2.55;;;;;;;;;;4978721;28;20030;-26
2022/11/03 07:38:13;;;;;;;7.13;2.10;;;;;;;;;;4978540;28;20090;-26
2022/11/03 07:40:39;;;;;;;14.23;3.33;;;;;;;;;;4978718;28;20030;-26
2022/11/03 07:43:14;;;;;;;16.52;3.55;;;;;;;;;;4961483;28;20026;-26
2022/11/03 07:45:47;;;;;;;7.35;2.47;;;;;;;;;;4978912;28;20082;-26
2022/11/03 07:48:33;;;;;;;9.48;3.28;;;;;;;;;;4978361;28;20100;-26
2022/11/03 07:51:00;;;;;;;9.77;2.47;;;;;;;;;;4977513;28;20074;-26
2022/11/03 07:53:40;;;;;;;5.05;2.42;;;;;;;;;;4978411;28;20362;-26
2022/11/03 07:56:18;;;;;;;9.25;2.80;;;;;;;;;;4978242;28;20500;-26
2022/11/03 07:58:45;;;;;;;8.80;2.88;;;;;;;;;;4961125;28;20109;-26
2022/11/03 08:01:31;;;;;;;15.63;3.97;;;;;;;;;;4960902;28;20062;-25
2022/11/03 08:04:00;;;;;;;11.30;3.30;;;;;;;;;;4977651;28;20082;-26
2022/11/03 08:06:26;;;;;;;10.50;2.78;;;;;;;;;;4978323;28;20450;-25
2022/11/03 08:08:52;;;;;;;11.45;2.70;;;;;;;;;;4978368;28;20035;-26
2022/11/03 08:11:19;;;;;;;7.35;2.85;;;;;;;;;;4977808;28;20035;-26
2022/11/03 08:13:45;;;;;;;10.90;3.03;;;;;;;;;;4977964;28;20369;-25
2022/11/03 08:16:11;;;;;;;23.83;3.47;;;;;;;;;;4978082;28;20322;-25
2022/11/03 08:18:37;;;;;;;14.63;2.42;;;;;;;;;;4978032;28;20033;-26
2022/11/03 08:21:03;;;;;;;5.95;3.03;;;;;;;;;;4977715;28;20027;-26
2022/11/03 08:23:30;;;;;;;7.18;2.97;;;;;;;;;;4977710;28;20505;-25
2022/11/03 08:25:56;;;;;;;8.73;3.08;;;;;;;;;;4977920;28;20516;-25
2022/11/03 08:28:22;;;;;;;14.85;2.88;;;;;;;;;;4977783;28;20047;-25
2022/11/03 08:30:48;;;;;;;9.55;2.75;;;;;;;;;;4977513;28;20413;-25
2022/11/03 08:33:15;;;;;;;9.50;3.17;;;;;;;;;;4977539;28;20047;-25
2022/11/03 08:35:41;;;;;;;10.38;2.65;;;;;;;;;;4977580;28;20039;-24
2022/11/03 08:38:07;;;;;;;6.88;2.40;;;;;;;;;;4960382;28;20038;-25
2022/11/03 08:40:33;;;;;;;16.75;3.20;;;;;;;;;;4977375;28;20042;-26
2022/11/03 08:43:01;;;;;;;13.48;3.85;;;;;;;;;;4977206;28;20469;-26
2022/11/03 08:45:28;;;;;;;8.00;3.13;;;;;;;;;;4977071;28;20057;-25
2022/11/03 08:47:55;;;;;;;15.73;2.55;;;;;;;;;;4977012;28;20027;-25
2022/11/03 08:50:22;;;;;;;14.65;2.60;;;;;;;;;;4976966;28;20055;-26
2022/11/03 08:52:48;;;;;;;13.10;2.78;;;;;;;;;;4976869;28;20038;-25
2022/11/03 08:55:14;;;;;;;11.80;2.85;;;;;;;;;;4976995;28;20027;-25
2022/11/03 08:57:41;;;;;;;7.38;3.25;;;;;;;;;;4977280;28;20065;-26
2022/11/03 09:00:08;;;;;;;12.13;2.78;;;;;;;;;;4977246;28;20031;-25
2022/11/03 09:02:34;;;;;;;7.97;3.20;;;;;;;;;;4976677;28;20051;-25
2022/11/03 09:05:00;;;;;;;14.18;4.03;;;;;;;;;;4977930;28;20030;-28
2022/11/03 09:07:26;;;;;;;7.18;2.90;;;;;;;;;;4977050;28;20058;-25
2022/11/03 09:09:53;;;;;;;9.55;3.08;;;;;;;;;;4977040;28;20027;-25
2022/11/03 09:12:19;;;;;;;13.10;3.03;;;;;;;;;;4959700;28;20038;-25
2022/11/03 09:14:45;;;;;;;8.27;3.45;;;;;;;;;;4976821;28;20031;-25
2022/11/03 09:17:11;;;;;;;12.00;2.88;;;;;;;;;;4976790;28;20031;-25
2022/11/03 09:19:37;;;;;;;8.63;2.95;;;;;;;;;;4976819;28;20127;-26
2022/11/03 09:22:04;;;;;;;8.98;2.90;;;;;;;;;;4976731;28;20053;-34
2022/11/03 09:24:30;;;;;;;10.88;3.10;;;;;;;;;;4976570;28;20041;-26
2022/11/03 09:26:56;;;;;;;8.82;2.25;;;;;;;;;;4976533;28;20375;-26
2022/11/03 09:29:23;;;;;;;26.95;4.35;;;;;;;;;;4976699;28;20069;-26
2022/11/03 09:31:49;;;;;;;15.77;3.20;;;;;;;;;;4976435;28;20023;-26
2022/11/03 09:34:16;;;;;;;9.65;2.60;;;;;;;;;;4976338;28;20031;-26
2022/11/03 09:36:42;;;;;;;9.00;3.55;;;;;;;;;;4976503;28;20074;-26
2022/11/03 09:39:08;;;;;;;13.25;3.10;;;;;;;;;;4976243;28;20489;-25
2022/11/03 09:41:34;;;;;;;13.32;3.92;;;;;;;;;;4976554;28;20433;-25
2022/11/03 09:44:01;;;;;;;11.10;2.83;;;;;;;;;;4958901;28;20046;-25
2022/11/03 09:46:29;;;;;;;13.75;4.22;;;;;;;;;;4976448;28;20035;-25
2022/11/03 09:48:55;;;;;;;11.25;2.60;;;;;;;;;;4976188;28;20465;-25
2022/11/03 09:51:22;;;;;;;15.30;3.25;;;;;;;;;;4976173;28;20042;-25
2022/11/03 09:53:49;;;;;;;13.57;3.08;;;;;;;;;;4975828;28;20027;-25
2022/11/03 09:56:17;;;;;;;11.90;4.72;;;;;;;;;;4975680;28;20469;-25
2022/11/03 09:58:43;;;;;;;8.43;2.72;;;;;;;;;;4976138;28;20159;-25
2022/11/03 10:01:10;;;;;;;8.57;2.75;;;;;;;;;;4976360;28;20157;-26
2022/11/03 10:03:40;;;;;;;9.85;2.53;;;;;;;;;;4975495;28;20121;-26
2022/11/03 10:06:06;;;;;;;10.75;3.10;;;;;;;;;;4975566;28;20476;-25
2022/11/03 10:08:34;;;;;;;8.48;3.10;;;;;;;;;;4975582;28;20046;-25
2022/11/03 10:11:01;;;;;;;9.13;2.50;;;;;;;;;;4975592;28;20034;-25
2022/11/03 10:13:27;;;;;;;7.35;3.70;;;;;;;;;;4975881;28;20105;-25
2022/11/03 10:15:53;;;;;;;6.28;2.33;;;;;;;;;;4976181;28;20027;-25
2022/11/03 10:18:20;;;;;;;11.93;3.25;;;;;;;;;;4975703;28;20031;-25
2022/11/03 10:20:46;;;;;;;11.50;3.67;;;;;;;;;;4975712;28;20026;-25
2022/11/03 10:23:12;;;;;;;12.05;4.70;;;;;;;;;;4975803;28;20046;-25
2022/11/03 10:25:40;;;;;;;8.38;2.10;;;;;;;;;;4975572;28;20548;-25
2022/11/03 10:28:13;;;;;;;5.35;2.53;;;;;;;;;;4976016;28;20062;-26
2022/11/03 10:30:52;;;;;;;8.32;2.97;;;;;;;;;;4976168;28;20030;-26
2022/11/03 10:33:29;;;;;;;10.63;2.90;;;;;;;;;;4975732;28;20022;-26
2022/11/03 10:35:56;;;;;;;11.45;3.42;;;;;;;;;;4975927;28;20022;-26
2022/11/03 10:38:29;;;;;;;8.98;2.85;;;;;;;;;;4975761;28;20118;-27
2022/11/03 10:40:55;;;;;;;7.78;2.40;;;;;;;;;;4975472;28;20474;-26
2022/11/03 10:43:22;;;;;;;6.45;3.25;;;;;;;;;;4975474;28;20110;-27
2022/11/03 10:45:48;;;;;;;7.57;2.40;;;;;;;;;;4975513;28;20050;-26
2022/11/03 10:48:15;;;;;;;9.88;2.63;;;;;;;;;;4976202;28;20031;-26
2022/11/03 10:50:41;;;;;;;8.30;2.63;;;;;;;;;;4975515;28;20038;-26
2022/11/03 10:53:20;;;;;;;10.32;3.67;;;;;;;;;;4975404;28;20102;-26
2022/11/03 10:55:46;;;;;;;11.98;2.70;;;;;;;;;;4975715;28;20022;-26
2022/11/03 10:58:12;;;;;;;9.75;3.15;;;;;;;;;;4975624;28;20109;-36
2022/11/03 11:00:40;;;;;;;7.15;2.40;;;;;;;;;;4975622;28;20057;-26
2022/11/03 11:03:07;;;;;;;7.88;2.88;;;;;;;;;;4975078;28;20043;-25
2022/11/03 11:05:33;;;;;;;9.52;2.60;;;;;;;;;;4975524;28;20343;-24
2022/11/03 11:08:00;;;;;;;7.40;2.65;;;;;;;;;;4979546;28;20034;-26
2022/11/03 11:10:27;;;;;;;10.90;3.38;;;;;;;;;;4978797;28;20026;-26
2022/11/03 11:13:11;;;;;;;10.38;3.22;;;;;;;;;;4979294;28;20054;-25
2022/11/03 11:15:57;;;;;;;8.70;4.55;;;;;;;;;;4979020;28;20035;-26
2022/11/03 11:18:29;;;;;;;8.25;3.28;;;;;;;;;;4979087;28;20106;-25
2022/11/03 11:21:02;;;;;;;8.82;2.50;;;;;;;;;;4978975;28;20152;-25
2022/11/03 11:23:28;;;;;;;10.02;3.13;;;;;;;;;;4978874;28;20101;-25
2022/11/03 11:26:13;;;;;;;7.38;2.92;;;;;;;;;;4978510;28;20031;-25
2022/11/03 11:28:39;;;;;;;6.75;2.67;;;;;;;;;;4978762;28;20030;-25
2022/11/03 11:31:28;;;;;;;11.68;2.58;;;;;;;;;;4978840;28;20035;-25
2022/11/03 11:34:16;;;;;;;12.77;3.85;;;;;;;;;;4970903;28;20109;-26
2022/11/03 11:36:43;;;;;;;20.02;3.35;;;;;;;;;;4978427;28;20035;-26
2022/11/03 11:39:40;;;;;;;8.80;2.63;;;;;;;;;;4978581;28;20064;-26
2022/11/03 11:42:06;;;;;;;9.80;3.67;;;;;;;;;;4961096;28;20374;-26
2022/11/03 11:45:01;;;;;;;8.30;2.95;;;;;;;;;;4978520;28;20102;-25
2022/11/03 11:47:40;;;;;;;13.93;3.17;;;;;;;;;;4978507;28;20042;-26
2022/11/03 11:50:06;;;;;;;10.75;3.08;;;;;;;;;;4978246;28;20069;-26
2022/11/03 11:52:41;;;;;;;6.07;2.67;;;;;;;;;;4961006;28;20055;-26
2022/11/03 11:55:17;;;;;;;12.50;3.28;;;;;;;;;;4978123;28;20125;-26
2022/11/03 11:57:44;;;;;;;6.82;2.45;;;;;;;;;;4978320;28;20043;-27
2022/11/03 12:00:21;;;;;;;11.70;3.08;;;;;;;;;;4977997;28;20038;-25
2022/11/03 12:02:47;;;;;;;7.00;3.35;;;;;;;;;;4977641;28;20055;-26
2022/11/03 12:05:25;;;;;;;10.82;2.47;;;;;;;;;;4978160;28;20086;-26
2022/11/03 12:07:51;;;;;;;20.60;3.63;;;;;;;;;;4977785;28;20114;-26
2022/11/03 12:10:27;;;;;;;11.80;3.15;;;;;;;;;;4978094;28;20358;-25
2022/11/03 12:12:57;;;;;;;10.38;3.00;;;;;;;;;;4977926;28;20027;-26
2022/11/03 12:15:42;;;;;;;9.27;2.95;;;;;;;;;;4977907;28;20053;-28
2022/11/03 12:18:26;;;;;;;15.00;3.08;;;;;;;;;;4977368;28;20444;-25
2022/11/03 12:20:52;;;;;;;9.45;3.65;;;;;;;;;;4960473;28;20042;-26
2022/11/03 12:23:41;;;;;;;8.50;3.13;;;;;;;;;;4977470;28;20449;-25
2022/11/03 12:26:14;;;;;;;6.57;2.92;;;;;;;;;;4977479;28;20108;-26
2022/11/03 12:28:40;;;;;;;8.77;3.47;;;;;;;;;;4960285;28;20122;-26
2022/11/03 12:31:06;;;;;;;7.75;2.35;;;;;;;;;;4977457;28;20038;-26
2022/11/03 12:33:33;;;;;;;12.27;3.85;;;;;;;;;;4977486;28;20041;-26
2022/11/03 12:35:59;;;;;;;12.23;3.35;;;;;;;;;;4977608;28;20031;-26
2022/11/03 12:38:25;;;;;;;7.70;3.28;;;;;;;;;;4977329;28;20038;-26
2022/11/03 12:40:52;;;;;;;6.60;3.00;;;;;;;;;;4945272;28;20027;-25
2022/11/03 12:43:19;;;;;;;12.00;3.30;;;;;;;;;;4977560;28;20098;-26
2022/11/03 12:45:45;;;;;;;17.63;3.67;;;;;;;;;;4977423;28;20130;-26
2022/11/03 12:48:11;;;;;;;9.68;2.55;;;;;;;;;;4977102;28;20027;-26
2022/11/03 12:50:38;;;;;;;7.90;4.05;;;;;;;;;;4977641;28;20049;-26
2022/11/03 12:53:05;;;;;;;9.52;3.20;;;;;;;;;;4977211;28;20469;-26
2022/11/03 12:55:33;;;;;;;9.85;3.08;;;;;;;;;;4977264;28;20030;-26
2022/11/03 12:57:59;;;;;;;9.13;3.28;;;;;;;;;;4977022;28;20466;-25
2022/11/03 13:00:25;;;;;;;10.55;3.30;;;;;;;;;;4977082;28;20110;-25
2022/11/03 13:02:51;;;;;;;7.13;2.55;;;;;;;;;;4976647;28;20054;-25
2022/11/03 13:05:18;;;;;;;11.95;2.80;;;;;;;;;;4976654;28;20030;-25
2022/11/03 13:07:44;;;;;;;9.25;3.25;;;;;;;;;;4976592;28;20023;-25
2022/11/03 13:10:10;;;;;;;10.95;3.25;;;;;;;;;;4976968;28;20067;-26
2022/11/03 13:12:40;;;;;;;13.77;3.67;;;;;;;;;;4976597;28;20035;-26
2022/11/03 13:15:07;;;;;;;10.65;3.28;;;;;;;;;;4977038;28;20023;-25
2022/11/03 13:17:33;;;;;;;12.52;3.13;;;;;;;;;;4976518;28;20042;-26
2022/11/03 13:19:59;;;;;;;15.95;2.90;;;;;;;;;;4976665;28;20062;-26
2022/11/03 13:22:25;;;;;;;11.18;3.20;;;;;;;;;;4976278;28;20453;-26
2022/11/03 13:24:52;;;;;;;6.82;3.20;;;;;;;;;;4976269;28;20093;-26
2022/11/03 13:27:18;;;;;;;7.50;2.20;;;;;;;;;;4976126;28;20110;-26
2022/11/03 13:29:44;;;;;;;7.53;2.65;;;;;;;;;;4975226;28;20039;-26
2022/11/03 13:32:10;;;;;;;8.10;2.70;;;;;;;;;;4976198;28;20409;-26
2022/11/03 13:34:36;;;;;;;9.05;2.97;;;;;;;;;;4976237;28;20335;-26
2022/11/03 13:37:03;;;;;;;9.10;3.13;;;;;;;;;;4976113;28;20065;-26
2022/11/03 13:39:29;;;;;;;9.15;2.78;;;;;;;;;;4975912;28;20030;-26
2022/11/03 13:41:56;;;;;;;8.10;2.60;;;;;;;;;;4975791;28;20035;-26
2022/11/03 13:44:22;;;;;;;6.90;3.60;;;;;;;;;;4976367;28;20045;-26
2022/11/03 13:46:48;;;;;;;8.25;2.78;;;;;;;;;;4975912;28;20031;-26
2022/11/03 13:49:14;;;;;;;10.30;2.92;;;;;;;;;;4975873;28;20082;-27
2022/11/03 13:51:41;;;;;;;4.70;2.65;;;;;;;;;;4975640;28;20027;-26
2022/11/03 13:54:07;;;;;;;10.48;3.40;;;;;;;;;;4975740;28;20085;-26
2022/11/03 13:56:33;;;;;;;14.15;3.17;;;;;;;;;;4976392;28;20323;-26
2022/11/03 13:58:59;;;;;;;8.68;2.55;;;;;;;;;;4975695;28;20058;-27
2022/11/03 14:01:25;;;;;;;11.75;3.50;;;;;;;;;;4975636;28;20030;-26
2022/11/03 14:03:52;;;;;;;8.93;3.72;;;;;;;;;;4975414;28;20143;-26
2022/11/03 14:06:18;;;;;;;13.00;3.08;;;;;;;;;;4975842;28;20031;-26
2022/11/03 14:08:44;;;;;;;8.48;2.50;;;;;;;;;;4975509;28;20030;-26
2022/11/03 14:13:55;;;;;;;10.90;4.32;;;;;;;;;;4975512;28;20033;-26
2022/11/03 14:16:21;;;;;;;13.00;3.53;;;;;;;;;;4975479;28;20342;-26
2022/11/03 14:18:47;;;;;;;10.35;2.83;;;;;;;;;;4975623;28;20175;-31
2022/11/03 14:21:13;;;;;;;12.88;2.83;;;;;;;;;;4975341;28;20030;-26
2022/11/03 14:23:39;;;;;;;6.13;2.92;;;;;;;;;;4975421;28;20057;-26
2022/11/03 14:26:06;;;;;;;8.52;2.80;;;;;;;;;;4975643;28;20469;-26
2022/11/03 14:28:32;;;;;;;9.90;3.95;;;;;;;;;;4975309;28;20377;-26
2022/11/03 14:31:00;;;;;;;16.80;3.38;;;;;;;;;;4975548;28;20035;-26
2022/11/03 14:33:26;;;;;;;12.32;3.00;;;;;;;;;;4975565;28;20026;-26
2022/11/03 14:35:52;;;;;;;11.07;3.20;;;;;;;;;;4975650;28;20054;-27
2022/11/03 14:38:18;;;;;;;10.45;3.03;;;;;;;;;;4975542;28;20026;-27
2022/11/03 14:43:29;;;;;;;9.52;2.70;;;;;;;;;;4979359;28;20054;-25
2022/11/03 14:45:55;;;;;;;12.77;3.15;;;;;;;;;;4979543;28;20035;-25
2022/11/03 14:48:22;;;;;;;12.25;4.25;;;;;;;;;;4979467;28;20101;-25
2022/11/03 14:50:48;;;;;;;13.73;3.40;;;;;;;;;;4979316;28;20050;-25
2022/11/03 14:53:14;;;;;;;11.18;2.90;;;;;;;;;;4978970;28;20023;-25
2022/11/03 14:55:40;;;;;;;17.88;2.97;;;;;;;;;;4978985;28;20514;-26
2022/11/03 14:58:06;;;;;;;14.35;3.78;;;;;;;;;;4979063;28;20472;-26
2022/11/03 15:00:33;;;;;;;9.95;4.70;;;;;;;;;;4979240;28;20030;-27
2022/11/03 15:02:59;;;;;;;15.40;3.47;;;;;;;;;;4978589;28;20066;-26
2022/11/03 15:05:44;;;;;;;16.50;2.75;;;;;;;;;;4978906;28;20051;-26
2022/11/03 15:08:11;;;;;;;24.02;3.40;;;;;;;;;;4961813;28;20031;-26
2022/11/03 15:10:37;;;;;;;6.25;2.22;;;;;;;;;;4978715;28;20035;-25
2022/11/03 15:13:03;;;;;;;11.35;5.03;;;;;;;;;;4979004;28;20438;-27
2022/11/03 15:15:29;;;;;;;11.13;3.60;;;;;;;;;;4978768;28;20026;-26